Lake Tahoe, CA

4:16 PM PDT on October 01, 2016 (GMT -0700)
Lake Tahoe | | Change Station
Active Advisory: Lake Wind Advisory

Elev 6263 ft 38.90 °N, 120.00 °W | Updated 23 minutes ago

Clear
Clear
61 °F
Feels Like 61 °F
N
12
Wind Variable Wind from SSW
Gusts 20 mph

Today
High -- | Low -- °F
--% Chance of Precip.
Yesterday
High -- | Low -- °F
Precip. -- in
Pressure 29.98 in
Visibility 10.0 miles
Clouds Clear
Dew Point 19 °F
Humidity 20%
Rainfall 0.00 in
Snow Depth Not available.
6:56 AM 6:41 PM
New Moon, 1% visible
METAR KTVL 012253Z AUTO 20010G17KT 180V240 10SM CLR 16/M07 A3011 RMK AO2 SLP150 T01611072
Pressure 29.98 in
Visibility 10.0 miles
Clouds Clear
Dew Point 19 °F
Humidity 20%
Rainfall 0.00 in
Snow Depth Not available.
6:56 AM 6:41 PM
New Moon, 1% visible
METAR KTVL 012253Z AUTO 20010G17KT 180V240 10SM CLR 16/M07 A3011 RMK AO2 SLP150 T01611072

10-Day Weather Forecast

Almanac

Astronomy

Oct. 01, 2016 Rise Set
Actual Time
Civil Twilight
Nautical Twilight
Astronomical Twilight
Moon
Length of Visible Light
Length of Day
Tomorrow will be .
, % of the Moon is Illuminated

Today's Extremes

State Highs State Lows

Community

WunderPhotos

Upload Photos

1,943,048 photos uploaded!

WunderBlog® & News

Nearby

Air Quality

  Air Quality AQ Index Pollutant
Not available.

Snow Depth

Station Depth Elevation

Earthquake Activity

City Distance Mag. Time & Date
Minimum magnitude displayed is 2.5.

Coastal Water Temperatures

Place Temperature

Stations

Nearby Weather Stations

Station Location Temp. Windchill Dew Point Humidity Wind Precip. Elev Updated Type
                   

Watches & Warnings

Lake Wind Advisory
Issued: 3:09 PM PDT Oct. 1, 2016 – National Weather Service

... Lake Wind Advisory in effect from 8 am to 8 PM PDT Sunday for
Lake Tahoe...

The National Weather Service in Reno has issued a lake Wind
Advisory for Lake Tahoe, which is in effect from 8 am to 8 PM PDT
Sunday.

* Winds: southwest winds 15 to 20 mph with gusts to 40 mph.

* Wave heights: 1 to 3 feet... especially from mid-lake to north
and Eastern Shores.

* Small boats, kayaks and paddle boards will be prone to capsizing
and should remain off lake waters until conditions improve.

Precautionary/preparedness actions...

Check lake conditions before heading out and be prepared for a
sudden increase in winds and wave heights. Consider postponing
boating activities on the lake until a day with less wind.